sensor_id;sensor_type;location;lat;lon;timestamp;P1;durP1;ratioP1;P2;durP2;ratioP2
57337;SDS011;43173;50.980;18.204;2023-02-28T00:01:06;23.20;;;10.50;;
57337;SDS011;43173;50.980;18.204;2023-02-28T00:03:32;19.30;;;9.30;;
57337;SDS011;43173;50.980;18.204;2023-02-28T00:06:04;19.10;;;9.20;;
57337;SDS011;43173;50.980;18.204;2023-02-28T00:08:30;20.20;;;9.10;;
57337;SDS011;43173;50.980;18.204;2023-02-28T00:11:00;21.80;;;9.70;;
57337;SDS011;43173;50.980;18.204;2023-02-28T00:13:27;25.60;;;10.40;;
57337;SDS011;43173;50.980;18.204;2023-02-28T00:18:38;18.30;;;10.10;;
57337;SDS011;43173;50.980;18.204;2023-02-28T00:21:05;15.80;;;9.30;;
57337;SDS011;43173;50.980;18.204;2023-02-28T00:23:31;16.60;;;8.40;;
57337;SDS011;43173;50.980;18.204;2023-02-28T00:25:57;19.00;;;9.80;;
57337;SDS011;43173;50.980;18.204;2023-02-28T00:28:22;17.10;;;9.10;;
57337;SDS011;43173;50.980;18.204;2023-02-28T00:30:48;17.00;;;8.80;;
57337;SDS011;43173;50.980;18.204;2023-02-28T00:33:14;20.50;;;10.80;;
57337;SDS011;43173;50.980;18.204;2023-02-28T00:35:40;15.50;;;9.10;;
57337;SDS011;43173;50.980;18.204;2023-02-28T00:38:07;11.50;;;7.90;;
57337;SDS011;43173;50.980;18.204;2023-02-28T00:40:33;14.50;;;7.90;;
57337;SDS011;43173;50.980;18.204;2023-02-28T00:42:58;12.60;;;8.00;;
57337;SDS011;43173;50.980;18.204;2023-02-28T00:45:24;14.10;;;8.20;;
57337;SDS011;43173;50.980;18.204;2023-02-28T00:47:50;14.20;;;9.30;;
57337;SDS011;43173;50.980;18.204;2023-02-28T00:50:19;15.70;;;9.20;;
57337;SDS011;43173;50.980;18.204;2023-02-28T00:52:46;14.60;;;8.40;;
57337;SDS011;43173;50.980;18.204;2023-02-28T00:55:12;15.60;;;9.30;;
57337;SDS011;43173;50.980;18.204;2023-02-28T00:57:38;13.50;;;9.80;;
57337;SDS011;43173;50.980;18.204;2023-02-28T01:00:04;16.30;;;10.30;;
57337;SDS011;43173;50.980;18.204;2023-02-28T01:02:30;19.00;;;12.10;;
57337;SDS011;43173;50.980;18.204;2023-02-28T01:04:56;17.10;;;11.50;;
57337;SDS011;43173;50.980;18.204;2023-02-28T01:07:22;20.00;;;11.20;;
57337;SDS011;43173;50.980;18.204;2023-02-28T01:09:49;12.10;;;7.70;;
57337;SDS011;43173;50.980;18.204;2023-02-28T01:12:16;10.40;;;5.90;;
57337;SDS011;43173;50.980;18.204;2023-02-28T01:14:42;9.80;;;6.00;;
57337;SDS011;43173;50.980;18.204;2023-02-28T01:17:08;10.20;;;6.30;;
57337;SDS011;43173;50.980;18.204;2023-02-28T01:19:34;8.30;;;6.00;;
57337;SDS011;43173;50.980;18.204;2023-02-28T01:22:01;9.70;;;6.30;;
57337;SDS011;43173;50.980;18.204;2023-02-28T01:24:28;11.50;;;6.80;;
57337;SDS011;43173;50.980;18.204;2023-02-28T01:26:54;11.30;;;6.80;;
57337;SDS011;43173;50.980;18.204;2023-02-28T01:29:20;12.70;;;8.40;;
57337;SDS011;43173;50.980;18.204;2023-02-28T01:31:45;13.20;;;7.70;;
57337;SDS011;43173;50.980;18.204;2023-02-28T01:34:11;11.80;;;7.40;;
57337;SDS011;43173;50.980;18.204;2023-02-28T01:36:37;14.90;;;8.00;;
57337;SDS011;43173;50.980;18.204;2023-02-28T01:39:03;14.50;;;8.00;;
57337;SDS011;43173;50.980;18.204;2023-02-28T01:41:29;13.40;;;8.20;;
57337;SDS011;43173;50.980;18.204;2023-02-28T01:46:31;19.00;;;10.10;;
57337;SDS011;43173;50.980;18.204;2023-02-28T01:49:04;17.70;;;10.00;;
57337;SDS011;43173;50.980;18.204;2023-02-28T01:51:34;15.50;;;9.50;;
57337;SDS011;43173;50.980;18.204;2023-02-28T01:54:16;19.10;;;9.70;;
57337;SDS011;43173;50.980;18.204;2023-02-28T01:56:51;19.00;;;9.70;;
57337;SDS011;43173;50.980;18.204;2023-02-28T01:59:25;22.10;;;10.40;;
57337;SDS011;43173;50.980;18.204;2023-02-28T02:01:55;16.40;;;9.80;;
57337;SDS011;43173;50.980;18.204;2023-02-28T02:04:21;19.60;;;10.30;;
57337;SDS011;43173;50.980;18.204;2023-02-28T02:06:49;17.60;;;10.30;;
57337;SDS011;43173;50.980;18.204;2023-02-28T02:09:15;17.80;;;10.10;;
57337;SDS011;43173;50.980;18.204;2023-02-28T02:11:41;17.80;;;9.90;;
57337;SDS011;43173;50.980;18.204;2023-02-28T02:31:33;32.30;;;14.00;;
57337;SDS011;43173;50.980;18.204;2023-02-28T02:39:43;28.10;;;12.80;;
57337;SDS011;43173;50.980;18.204;2023-02-28T02:42:15;24.20;;;12.10;;
57337;SDS011;43173;50.980;18.204;2023-02-28T02:44:48;22.90;;;11.70;;
57337;SDS011;43173;50.980;18.204;2023-02-28T02:47:17;25.60;;;12.00;;
57337;SDS011;43173;50.980;18.204;2023-02-28T02:49:50;26.60;;;12.00;;
57337;SDS011;43173;50.980;18.204;2023-02-28T02:52:18;25.20;;;12.10;;
57337;SDS011;43173;50.980;18.204;2023-02-28T02:54:47;33.20;;;15.40;;
57337;SDS011;43173;50.980;18.204;2023-02-28T02:57:20;27.80;;;13.20;;
57337;SDS011;43173;50.980;18.204;2023-02-28T02:59:48;25.50;;;13.80;;
57337;SDS011;43173;50.980;18.204;2023-02-28T03:02:15;40.10;;;16.90;;
57337;SDS011;43173;50.980;18.204;2023-02-28T03:04:43;25.20;;;13.70;;
57337;SDS011;43173;50.980;18.204;2023-02-28T03:07:12;27.80;;;13.60;;
57337;SDS011;43173;50.980;18.204;2023-02-28T03:09:37;25.30;;;12.90;;
57337;SDS011;43173;50.980;18.204;2023-02-28T03:12:03;24.80;;;13.10;;
57337;SDS011;43173;50.980;18.204;2023-02-28T03:19:44;23.00;;;12.20;;
57337;SDS011;43173;50.980;18.204;2023-02-28T03:22:40;25.50;;;12.90;;
57337;SDS011;43173;50.980;18.204;2023-02-28T03:27:53;26.20;;;13.30;;
57337;SDS011;43173;50.980;18.204;2023-02-28T03:30:35;33.70;;;16.80;;
57337;SDS011;43173;50.980;18.204;2023-02-28T03:33:10;42.00;;;18.60;;
57337;SDS011;43173;50.980;18.204;2023-02-28T03:35:42;32.00;;;18.20;;
57337;SDS011;43173;50.980;18.204;2023-02-28T03:41:10;40.60;;;22.30;;
57337;SDS011;43173;50.980;18.204;2023-02-28T03:43:40;36.30;;;18.70;;
57337;SDS011;43173;50.980;18.204;2023-02-28T03:46:10;36.10;;;19.20;;
57337;SDS011;43173;50.980;18.204;2023-02-28T03:48:43;40.10;;;19.70;;
57337;SDS011;43173;50.980;18.204;2023-02-28T03:51:10;41.80;;;20.90;;
57337;SDS011;43173;50.980;18.204;2023-02-28T03:53:42;38.50;;;18.30;;
57337;SDS011;43173;50.980;18.204;2023-02-28T03:56:33;34.40;;;16.20;;
57337;SDS011;43173;50.980;18.204;2023-02-28T03:59:02;30.60;;;14.70;;
57337;SDS011;43173;50.980;18.204;2023-02-28T04:04:12;34.60;;;16.40;;
57337;SDS011;43173;50.980;18.204;2023-02-28T04:06:39;31.70;;;16.00;;
57337;SDS011;43173;50.980;18.204;2023-02-28T04:09:05;34.90;;;15.00;;
57337;SDS011;43173;50.980;18.204;2023-02-28T04:11:33;36.10;;;16.90;;
57337;SDS011;43173;50.980;18.204;2023-02-28T04:14:03;34.90;;;17.40;;
57337;SDS011;43173;50.980;18.204;2023-02-28T04:16:29;37.10;;;17.00;;
57337;SDS011;43173;50.980;18.204;2023-02-28T04:18:56;33.00;;;16.00;;
57337;SDS011;43173;50.980;18.204;2023-02-28T04:21:29;35.20;;;16.10;;
57337;SDS011;43173;50.980;18.204;2023-02-28T04:23:55;36.00;;;16.40;;
57337;SDS011;43173;50.980;18.204;2023-02-28T04:26:32;35.10;;;18.30;;
57337;SDS011;43173;50.980;18.204;2023-02-28T04:29:00;37.50;;;18.80;;
57337;SDS011;43173;50.980;18.204;2023-02-28T04:31:26;38.60;;;19.10;;
57337;SDS011;43173;50.980;18.204;2023-02-28T04:33:52;35.80;;;18.00;;
57337;SDS011;43173;50.980;18.204;2023-02-28T04:36:18;35.40;;;17.20;;
57337;SDS011;43173;50.980;18.204;2023-02-28T04:38:44;35.90;;;16.70;;
57337;SDS011;43173;50.980;18.204;2023-02-28T04:41:11;34.40;;;16.50;;
57337;SDS011;43173;50.980;18.204;2023-02-28T04:43:40;32.10;;;16.70;;
57337;SDS011;43173;50.980;18.204;2023-02-28T04:46:06;40.20;;;17.60;;
57337;SDS011;43173;50.980;18.204;2023-02-28T04:48:34;39.90;;;18.10;;
57337;SDS011;43173;50.980;18.204;2023-02-28T04:51:05;37.30;;;17.90;;
57337;SDS011;43173;50.980;18.204;2023-02-28T04:53:33;44.50;;;20.40;;
57337;SDS011;43173;50.980;18.204;2023-02-28T04:56:00;36.10;;;19.60;;
57337;SDS011;43173;50.980;18.204;2023-02-28T04:58:26;41.80;;;19.00;;
57337;SDS011;43173;50.980;18.204;2023-02-28T05:00:52;42.70;;;19.50;;
57337;SDS011;43173;50.980;18.204;2023-02-28T05:03:22;40.80;;;19.20;;
57337;SDS011;43173;50.980;18.204;2023-02-28T05:05:48;37.20;;;18.10;;
57337;SDS011;43173;50.980;18.204;2023-02-28T05:08:13;43.30;;;18.20;;
57337;SDS011;43173;50.980;18.204;2023-02-28T05:10:39;40.40;;;18.80;;
57337;SDS011;43173;50.980;18.204;2023-02-28T05:13:05;44.30;;;18.90;;
57337;SDS011;43173;50.980;18.204;2023-02-28T05:15:30;48.90;;;20.60;;
57337;SDS011;43173;50.980;18.204;2023-02-28T05:17:56;39.40;;;20.00;;
57337;SDS011;43173;50.980;18.204;2023-02-28T05:20:22;47.90;;;20.70;;
57337;SDS011;43173;50.980;18.204;2023-02-28T05:22:49;53.30;;;22.30;;
57337;SDS011;43173;50.980;18.204;2023-02-28T05:25:18;53.10;;;22.40;;
57337;SDS011;43173;50.980;18.204;2023-02-28T05:30:12;39.60;;;17.30;;
57337;SDS011;43173;50.980;18.204;2023-02-28T05:32:38;47.70;;;18.80;;
57337;SDS011;43173;50.980;18.204;2023-02-28T05:35:08;47.70;;;19.20;;
57337;SDS011;43173;50.980;18.204;2023-02-28T05:37:38;43.30;;;19.30;;
57337;SDS011;43173;50.980;18.204;2023-02-28T05:40:05;52.80;;;19.90;;
57337;SDS011;43173;50.980;18.204;2023-02-28T05:42:32;49.40;;;22.00;;
57337;SDS011;43173;50.980;18.204;2023-02-28T05:44:57;47.70;;;21.20;;
57337;SDS011;43173;50.980;18.204;2023-02-28T05:47:24;43.90;;;19.40;;
57337;SDS011;43173;50.980;18.204;2023-02-28T05:49:50;37.20;;;18.30;;
57337;SDS011;43173;50.980;18.204;2023-02-28T05:52:15;45.40;;;19.90;;
57337;SDS011;43173;50.980;18.204;2023-02-28T05:54:42;35.90;;;18.60;;
57337;SDS011;43173;50.980;18.204;2023-02-28T05:57:08;38.40;;;16.90;;
57337;SDS011;43173;50.980;18.204;2023-02-28T05:59:33;35.00;;;16.50;;
57337;SDS011;43173;50.980;18.204;2023-02-28T06:01:59;32.90;;;16.60;;
57337;SDS011;43173;50.980;18.204;2023-02-28T06:04:25;33.70;;;17.00;;
57337;SDS011;43173;50.980;18.204;2023-02-28T06:06:50;35.20;;;16.50;;
57337;SDS011;43173;50.980;18.204;2023-02-28T06:09:16;34.20;;;18.80;;
57337;SDS011;43173;50.980;18.204;2023-02-28T06:11:43;38.30;;;18.00;;
57337;SDS011;43173;50.980;18.204;2023-02-28T06:14:15;40.60;;;19.50;;
57337;SDS011;43173;50.980;18.204;2023-02-28T06:16:43;49.90;;;22.40;;
57337;SDS011;43173;50.980;18.204;2023-02-28T06:19:08;50.30;;;22.20;;
57337;SDS011;43173;50.980;18.204;2023-02-28T06:21:35;49.10;;;23.70;;
57337;SDS011;43173;50.980;18.204;2023-02-28T06:24:01;55.40;;;23.40;;
57337;SDS011;43173;50.980;18.204;2023-02-28T06:26:27;45.60;;;20.80;;
57337;SDS011;43173;50.980;18.204;2023-02-28T06:28:53;50.80;;;20.90;;
57337;SDS011;43173;50.980;18.204;2023-02-28T06:31:20;46.80;;;22.50;;
57337;SDS011;43173;50.980;18.204;2023-02-28T06:33:47;48.70;;;23.30;;
57337;SDS011;43173;50.980;18.204;2023-02-28T06:36:13;64.30;;;27.40;;
57337;SDS011;43173;50.980;18.204;2023-02-28T06:38:40;71.10;;;32.30;;
57337;SDS011;43173;50.980;18.204;2023-02-28T06:41:06;71.20;;;33.40;;
57337;SDS011;43173;50.980;18.204;2023-02-28T06:43:34;62.70;;;26.90;;
57337;SDS011;43173;50.980;18.204;2023-02-28T06:46:02;60.80;;;25.50;;
57337;SDS011;43173;50.980;18.204;2023-02-28T06:48:29;59.60;;;25.50;;
57337;SDS011;43173;50.980;18.204;2023-02-28T06:51:06;55.10;;;22.30;;
57337;SDS011;43173;50.980;18.204;2023-02-28T06:53:33;50.40;;;21.90;;
57337;SDS011;43173;50.980;18.204;2023-02-28T06:56:03;48.60;;;22.40;;
57337;SDS011;43173;50.980;18.204;2023-02-28T06:58:30;52.10;;;22.10;;
57337;SDS011;43173;50.980;18.204;2023-02-28T07:00:56;49.10;;;21.80;;
57337;SDS011;43173;50.980;18.204;2023-02-28T07:03:22;48.20;;;24.00;;
57337;SDS011;43173;50.980;18.204;2023-02-28T07:05:48;46.10;;;22.20;;
57337;SDS011;43173;50.980;18.204;2023-02-28T07:08:14;52.10;;;23.90;;
57337;SDS011;43173;50.980;18.204;2023-02-28T07:10:40;48.50;;;21.00;;
57337;SDS011;43173;50.980;18.204;2023-02-28T07:13:06;41.10;;;18.90;;
57337;SDS011;43173;50.980;18.204;2023-02-28T07:15:34;28.20;;;15.60;;
57337;SDS011;43173;50.980;18.204;2023-02-28T07:18:00;28.90;;;14.40;;
57337;SDS011;43173;50.980;18.204;2023-02-28T07:20:26;33.40;;;14.90;;
57337;SDS011;43173;50.980;18.204;2023-02-28T07:22:52;27.00;;;13.50;;
57337;SDS011;43173;50.980;18.204;2023-02-28T07:25:30;25.80;;;13.60;;
57337;SDS011;43173;50.980;18.204;2023-02-28T07:27:56;30.90;;;15.40;;
57337;SDS011;43173;50.980;18.204;2023-02-28T07:30:24;31.90;;;16.40;;
57337;SDS011;43173;50.980;18.204;2023-02-28T07:32:50;31.50;;;14.90;;
57337;SDS011;43173;50.980;18.204;2023-02-28T07:35:15;35.80;;;16.80;;
57337;SDS011;43173;50.980;18.204;2023-02-28T07:37:41;34.40;;;17.20;;
57337;SDS011;43173;50.980;18.204;2023-02-28T07:40:08;35.10;;;16.70;;
57337;SDS011;43173;50.980;18.204;2023-02-28T07:42:39;42.30;;;19.00;;
57337;SDS011;43173;50.980;18.204;2023-02-28T07:45:07;37.80;;;17.20;;
57337;SDS011;43173;50.980;18.204;2023-02-28T07:47:39;27.70;;;13.70;;
57337;SDS011;43173;50.980;18.204;2023-02-28T07:50:06;27.80;;;13.60;;
57337;SDS011;43173;50.980;18.204;2023-02-28T07:52:34;19.60;;;10.00;;
57337;SDS011;43173;50.980;18.204;2023-02-28T07:55:00;19.50;;;10.80;;
57337;SDS011;43173;50.980;18.204;2023-02-28T07:57:25;19.70;;;9.60;;
57337;SDS011;43173;50.980;18.204;2023-02-28T07:59:51;13.60;;;7.80;;
57337;SDS011;43173;50.980;18.204;2023-02-28T08:02:17;13.00;;;7.10;;
57337;SDS011;43173;50.980;18.204;2023-02-28T08:04:44;15.60;;;6.80;;
57337;SDS011;43173;50.980;18.204;2023-02-28T08:07:10;13.20;;;5.60;;
57337;SDS011;43173;50.980;18.204;2023-02-28T08:09:39;17.00;;;8.80;;
57337;SDS011;43173;50.980;18.204;2023-02-28T08:12:06;22.30;;;9.10;;
57337;SDS011;43173;50.980;18.204;2023-02-28T08:14:32;20.10;;;9.30;;
57337;SDS011;43173;50.980;18.204;2023-02-28T08:16:58;23.40;;;9.90;;
57337;SDS011;43173;50.980;18.204;2023-02-28T08:19:24;21.40;;;8.70;;
57337;SDS011;43173;50.980;18.204;2023-02-28T08:21:50;20.00;;;9.40;;
57337;SDS011;43173;50.980;18.204;2023-02-28T08:24:16;18.00;;;7.40;;
57337;SDS011;43173;50.980;18.204;2023-02-28T08:26:41;14.60;;;7.40;;
57337;SDS011;43173;50.980;18.204;2023-02-28T08:29:07;15.70;;;7.10;;
57337;SDS011;43173;50.980;18.204;2023-02-28T08:31:33;13.10;;;6.60;;
57337;SDS011;43173;50.980;18.204;2023-02-28T08:34:04;17.30;;;7.90;;
57337;SDS011;43173;50.980;18.204;2023-02-28T08:36:34;16.20;;;9.50;;
57337;SDS011;43173;50.980;18.204;2023-02-28T08:39:00;24.20;;;10.60;;
57337;SDS011;43173;50.980;18.204;2023-02-28T08:41:26;21.30;;;10.50;;
57337;SDS011;43173;50.980;18.204;2023-02-28T08:43:52;17.60;;;9.30;;
57337;SDS011;43173;50.980;18.204;2023-02-28T08:46:19;19.90;;;9.40;;
57337;SDS011;43173;50.980;18.204;2023-02-28T08:48:45;16.60;;;8.90;;
57337;SDS011;43173;50.980;18.204;2023-02-28T08:51:12;17.90;;;9.60;;
57337;SDS011;43173;50.980;18.204;2023-02-28T08:53:39;13.00;;;8.10;;
57337;SDS011;43173;50.980;18.204;2023-02-28T08:56:07;17.40;;;7.80;;
57337;SDS011;43173;50.980;18.204;2023-02-28T08:58:34;10.20;;;6.20;;
57337;SDS011;43173;50.980;18.204;2023-02-28T09:01:06;8.00;;;5.30;;
57337;SDS011;43173;50.980;18.204;2023-02-28T09:03:35;10.40;;;5.90;;
57337;SDS011;43173;50.980;18.204;2023-02-28T09:06:01;10.80;;;6.30;;
57337;SDS011;43173;50.980;18.204;2023-02-28T09:08:28;13.50;;;6.90;;
57337;SDS011;43173;50.980;18.204;2023-02-28T09:10:55;12.00;;;7.20;;
57337;SDS011;43173;50.980;18.204;2023-02-28T09:13:23;12.90;;;6.40;;
57337;SDS011;43173;50.980;18.204;2023-02-28T09:15:50;12.00;;;6.70;;
57337;SDS011;43173;50.980;18.204;2023-02-28T09:18:16;11.30;;;6.80;;
57337;SDS011;43173;50.980;18.204;2023-02-28T09:20:42;13.00;;;6.40;;
57337;SDS011;43173;50.980;18.204;2023-02-28T09:23:09;11.70;;;6.20;;
57337;SDS011;43173;50.980;18.204;2023-02-28T09:25:36;11.00;;;6.10;;
57337;SDS011;43173;50.980;18.204;2023-02-28T09:28:02;11.10;;;6.40;;
57337;SDS011;43173;50.980;18.204;2023-02-28T09:30:29;10.10;;;6.20;;
57337;SDS011;43173;50.980;18.204;2023-02-28T09:32:55;11.90;;;6.30;;
57337;SDS011;43173;50.980;18.204;2023-02-28T09:35:21;12.90;;;6.60;;
57337;SDS011;43173;50.980;18.204;2023-02-28T09:37:48;16.40;;;7.70;;
57337;SDS011;43173;50.980;18.204;2023-02-28T09:40:17;10.10;;;6.70;;
57337;SDS011;43173;50.980;18.204;2023-02-28T09:42:45;13.30;;;7.00;;
57337;SDS011;43173;50.980;18.204;2023-02-28T09:45:15;9.70;;;5.80;;
57337;SDS011;43173;50.980;18.204;2023-02-28T09:48:01;12.30;;;6.60;;
57337;SDS011;43173;50.980;18.204;2023-02-28T09:50:31;12.40;;;6.70;;
57337;SDS011;43173;50.980;18.204;2023-02-28T09:53:02;11.10;;;5.90;;
57337;SDS011;43173;50.980;18.204;2023-02-28T09:55:39;10.60;;;6.70;;
57337;SDS011;43173;50.980;18.204;2023-02-28T09:58:19;11.20;;;5.90;;
57337;SDS011;43173;50.980;18.204;2023-02-28T10:00:49;10.50;;;6.50;;
57337;SDS011;43173;50.980;18.204;2023-02-28T10:08:52;13.70;;;7.40;;
57337;SDS011;43173;50.980;18.204;2023-02-28T10:11:23;12.00;;;7.40;;
57337;SDS011;43173;50.980;18.204;2023-02-28T10:13:56;11.00;;;7.00;;
57337;SDS011;43173;50.980;18.204;2023-02-28T10:16:42;14.40;;;7.80;;
57337;SDS011;43173;50.980;18.204;2023-02-28T10:19:20;13.30;;;8.00;;
57337;SDS011;43173;50.980;18.204;2023-02-28T10:24:30;12.50;;;7.10;;
57337;SDS011;43173;50.980;18.204;2023-02-28T10:27:06;12.30;;;7.20;;
57337;SDS011;43173;50.980;18.204;2023-02-28T10:29:40;11.70;;;7.10;;
57337;SDS011;43173;50.980;18.204;2023-02-28T10:32:09;14.90;;;8.00;;
57337;SDS011;43173;50.980;18.204;2023-02-28T10:34:36;11.50;;;7.20;;
57337;SDS011;43173;50.980;18.204;2023-02-28T10:37:02;14.10;;;7.30;;
57337;SDS011;43173;50.980;18.204;2023-02-28T10:39:36;13.70;;;7.40;;
57337;SDS011;43173;50.980;18.204;2023-02-28T10:42:04;12.10;;;7.70;;
57337;SDS011;43173;50.980;18.204;2023-02-28T10:44:30;11.40;;;7.30;;
57337;SDS011;43173;50.980;18.204;2023-02-28T10:46:56;13.00;;;7.40;;
57337;SDS011;43173;50.980;18.204;2023-02-28T10:49:23;14.70;;;8.50;;
57337;SDS011;43173;50.980;18.204;2023-02-28T10:51:58;14.90;;;8.80;;
57337;SDS011;43173;50.980;18.204;2023-02-28T10:54:35;11.30;;;6.50;;
57337;SDS011;43173;50.980;18.204;2023-02-28T10:59:34;13.70;;;7.10;;
57337;SDS011;43173;50.980;18.204;2023-02-28T11:02:00;13.20;;;6.10;;
57337;SDS011;43173;50.980;18.204;2023-02-28T11:06:58;15.90;;;8.00;;
57337;SDS011;43173;50.980;18.204;2023-02-28T11:09:27;13.90;;;7.90;;
57337;SDS011;43173;50.980;18.204;2023-02-28T11:11:55;14.60;;;7.90;;
57337;SDS011;43173;50.980;18.204;2023-02-28T11:14:28;11.60;;;7.10;;
57337;SDS011;43173;50.980;18.204;2023-02-28T11:16:57;12.50;;;6.90;;
57337;SDS011;43173;50.980;18.204;2023-02-28T11:19:26;15.10;;;8.70;;
57337;SDS011;43173;50.980;18.204;2023-02-28T11:21:55;11.90;;;7.90;;
57337;SDS011;43173;50.980;18.204;2023-02-28T11:29:52;16.20;;;8.40;;
57337;SDS011;43173;50.980;18.204;2023-02-28T11:32:19;13.30;;;8.30;;
57337;SDS011;43173;50.980;18.204;2023-02-28T11:37:36;14.40;;;8.20;;
57337;SDS011;43173;50.980;18.204;2023-02-28T11:40:05;11.50;;;7.60;;
57337;SDS011;43173;50.980;18.204;2023-02-28T12:01:22;14.00;;;7.80;;
57337;SDS011;43173;50.980;18.204;2023-02-28T12:27:00;12.90;;;8.70;;
57337;SDS011;43173;50.980;18.204;2023-02-28T12:29:32;13.90;;;9.00;;
57337;SDS011;43173;50.980;18.204;2023-02-28T12:32:07;14.30;;;8.20;;
57337;SDS011;43173;50.980;18.204;2023-02-28T12:34:47;12.30;;;8.50;;
57337;SDS011;43173;50.980;18.204;2023-02-28T12:37:25;10.50;;;8.50;;
57337;SDS011;43173;50.980;18.204;2023-02-28T12:39:57;14.30;;;9.20;;
57337;SDS011;43173;50.980;18.204;2023-02-28T12:42:31;12.60;;;9.50;;
57337;SDS011;43173;50.980;18.204;2023-02-28T12:45:18;14.30;;;9.80;;
57337;SDS011;43173;50.980;18.204;2023-02-28T12:47:44;14.00;;;9.50;;
57337;SDS011;43173;50.980;18.204;2023-02-28T12:50:13;11.80;;;8.70;;
57337;SDS011;43173;50.980;18.204;2023-02-28T13:09:21;13.40;;;9.50;;
57337;SDS011;43173;50.980;18.204;2023-02-28T13:11:48;11.60;;;8.40;;
57337;SDS011;43173;50.980;18.204;2023-02-28T13:14:23;11.70;;;9.50;;
57337;SDS011;43173;50.980;18.204;2023-02-28T13:19:32;11.90;;;8.60;;
57337;SDS011;43173;50.980;18.204;2023-02-28T13:22:00;12.20;;;9.00;;
57337;SDS011;43173;50.980;18.204;2023-02-28T13:34:35;11.10;;;9.20;;
57337;SDS011;43173;50.980;18.204;2023-02-28T13:52:45;12.40;;;10.40;;
57337;SDS011;43173;50.980;18.204;2023-02-28T14:09:02;14.40;;;10.50;;
57337;SDS011;43173;50.980;18.204;2023-02-28T14:11:35;15.20;;;9.80;;
57337;SDS011;43173;50.980;18.204;2023-02-28T14:14:03;11.70;;;9.50;;
57337;SDS011;43173;50.980;18.204;2023-02-28T14:16:39;15.10;;;10.80;;
57337;SDS011;43173;50.980;18.204;2023-02-28T14:21:39;13.40;;;10.90;;
57337;SDS011;43173;50.980;18.204;2023-02-28T14:37:56;14.30;;;10.50;;
57337;SDS011;43173;50.980;18.204;2023-02-28T14:40:29;13.70;;;10.70;;
57337;SDS011;43173;50.980;18.204;2023-02-28T14:42:58;14.20;;;10.90;;
57337;SDS011;43173;50.980;18.204;2023-02-28T14:45:30;14.50;;;10.80;;
57337;SDS011;43173;50.980;18.204;2023-02-28T14:47:57;13.50;;;10.30;;
57337;SDS011;43173;50.980;18.204;2023-02-28T14:50:26;13.60;;;10.60;;
57337;SDS011;43173;50.980;18.204;2023-02-28T14:52:56;12.20;;;10.00;;
57337;SDS011;43173;50.980;18.204;2023-02-28T14:55:26;12.80;;;10.50;;
57337;SDS011;43173;50.980;18.204;2023-02-28T14:57:58;13.00;;;9.60;;
57337;SDS011;43173;50.980;18.204;2023-02-28T15:00:29;13.50;;;10.20;;
57337;SDS011;43173;50.980;18.204;2023-02-28T15:02:57;16.00;;;10.10;;
57337;SDS011;43173;50.980;18.204;2023-02-28T15:08:02;13.20;;;10.80;;
57337;SDS011;43173;50.980;18.204;2023-02-28T15:13:18;16.00;;;11.70;;
57337;SDS011;43173;50.980;18.204;2023-02-28T15:23:40;24.40;;;14.90;;
57337;SDS011;43173;50.980;18.204;2023-02-28T15:26:09;23.60;;;15.50;;
57337;SDS011;43173;50.980;18.204;2023-02-28T15:28:38;33.40;;;18.50;;
57337;SDS011;43173;50.980;18.204;2023-02-28T15:31:04;45.10;;;21.70;;
57337;SDS011;43173;50.980;18.204;2023-02-28T15:33:52;51.60;;;24.10;;
57337;SDS011;43173;50.980;18.204;2023-02-28T15:36:20;67.20;;;33.40;;
57337;SDS011;43173;50.980;18.204;2023-02-28T15:38:52;48.00;;;24.80;;
57337;SDS011;43173;50.980;18.204;2023-02-28T15:47:02;50.10;;;25.30;;
57337;SDS011;43173;50.980;18.204;2023-02-28T15:49:27;62.50;;;27.60;;
57337;SDS011;43173;50.980;18.204;2023-02-28T15:51:55;87.80;;;37.50;;
57337;SDS011;43173;50.980;18.204;2023-02-28T15:54:27;109.90;;;43.30;;
57337;SDS011;43173;50.980;18.204;2023-02-28T15:56:55;90.90;;;38.20;;
57337;SDS011;43173;50.980;18.204;2023-02-28T15:59:23;84.40;;;35.40;;
57337;SDS011;43173;50.980;18.204;2023-02-28T16:04:56;96.00;;;36.60;;
57337;SDS011;43173;50.980;18.204;2023-02-28T16:07:24;86.90;;;34.60;;
57337;SDS011;43173;50.980;18.204;2023-02-28T16:09:50;98.40;;;34.60;;
57337;SDS011;43173;50.980;18.204;2023-02-28T16:12:16;151.60;;;41.70;;
57337;SDS011;43173;50.980;18.204;2023-02-28T16:14:42;214.50;;;53.90;;
57337;SDS011;43173;50.980;18.204;2023-02-28T16:17:16;269.40;;;58.30;;
57337;SDS011;43173;50.980;18.204;2023-02-28T16:19:48;352.10;;;74.80;;
57337;SDS011;43173;50.980;18.204;2023-02-28T16:22:14;292.30;;;68.20;;
57337;SDS011;43173;50.980;18.204;2023-02-28T16:24:40;376.60;;;91.70;;
57337;SDS011;43173;50.980;18.204;2023-02-28T16:27:06;392.90;;;98.20;;
57337;SDS011;43173;50.980;18.204;2023-02-28T16:29:42;380.80;;;98.90;;
57337;SDS011;43173;50.980;18.204;2023-02-28T16:32:10;363.70;;;98.20;;
57337;SDS011;43173;50.980;18.204;2023-02-28T16:34:37;292.20;;;86.90;;
57337;SDS011;43173;50.980;18.204;2023-02-28T16:37:04;218.20;;;68.60;;
57337;SDS011;43173;50.980;18.204;2023-02-28T16:39:35;229.10;;;71.00;;
57337;SDS011;43173;50.980;18.204;2023-02-28T16:42:01;261.40;;;80.60;;
57337;SDS011;43173;50.980;18.204;2023-02-28T16:44:27;262.00;;;83.80;;
57337;SDS011;43173;50.980;18.204;2023-02-28T16:46:55;244.60;;;80.00;;
57337;SDS011;43173;50.980;18.204;2023-02-28T16:49:20;230.40;;;75.30;;
57337;SDS011;43173;50.980;18.204;2023-02-28T16:51:46;212.10;;;72.20;;
57337;SDS011;43173;50.980;18.204;2023-02-28T16:54:12;201.40;;;71.70;;
57337;SDS011;43173;50.980;18.204;2023-02-28T16:56:39;188.30;;;66.10;;
57337;SDS011;43173;50.980;18.204;2023-02-28T16:59:09;182.10;;;66.30;;
57337;SDS011;43173;50.980;18.204;2023-02-28T17:01:35;181.10;;;65.80;;
57337;SDS011;43173;50.980;18.204;2023-02-28T17:04:01;171.30;;;61.60;;
57337;SDS011;43173;50.980;18.204;2023-02-28T17:06:28;133.70;;;50.80;;
57337;SDS011;43173;50.980;18.204;2023-02-28T17:08:54;121.20;;;47.20;;
57337;SDS011;43173;50.980;18.204;2023-02-28T17:11:21;124.00;;;47.70;;
57337;SDS011;43173;50.980;18.204;2023-02-28T17:13:47;155.20;;;58.60;;
57337;SDS011;43173;50.980;18.204;2023-02-28T17:19:00;260.00;;;103.00;;
57337;SDS011;43173;50.980;18.204;2023-02-28T17:21:28;281.60;;;111.40;;
57337;SDS011;43173;50.980;18.204;2023-02-28T17:23:54;214.20;;;83.80;;
57337;SDS011;43173;50.980;18.204;2023-02-28T17:26:21;168.30;;;65.60;;
57337;SDS011;43173;50.980;18.204;2023-02-28T17:28:50;199.40;;;64.10;;
57337;SDS011;43173;50.980;18.204;2023-02-28T17:31:18;230.90;;;68.90;;
57337;SDS011;43173;50.980;18.204;2023-02-28T17:33:43;324.00;;;88.60;;
57337;SDS011;43173;50.980;18.204;2023-02-28T17:36:13;352.10;;;99.30;;
57337;SDS011;43173;50.980;18.204;2023-02-28T17:38:40;338.50;;;93.40;;
57337;SDS011;43173;50.980;18.204;2023-02-28T17:41:07;405.10;;;101.70;;
57337;SDS011;43173;50.980;18.204;2023-02-28T17:43:35;388.00;;;93.30;;
57337;SDS011;43173;50.980;18.204;2023-02-28T17:46:00;399.70;;;93.90;;
57337;SDS011;43173;50.980;18.204;2023-02-28T17:48:26;422.70;;;97.80;;